Time;durP1;ratioP1;P1;durP2;ratioP2;P2;SDS_P1;SDS_P2;PMS_P1;PMS_P2;Temp;Humidity;BMP_temperature;BMP_pressure;BME280_temperature;BME280_humidity;BME280_pressure;Samples;Min_cycle;Max_cycle;Signal;HPM_P1;HPM_P2
2022/04/11 00:01:56;;;;;;;7.70;5.30;;;3.60;99.90;;;;;;5012208;28;20192;-70
2022/04/11 00:04:22;;;;;;;7.00;4.83;;;3.90;99.90;;;;;;5028430;28;20170;-70
2022/04/11 00:06:47;;;;;;;6.67;5.07;;;3.40;99.90;;;;;;5029598;28;20276;-70
2022/04/11 00:09:13;;;;;;;8.20;5.60;;;3.90;99.90;;;;;;5029547;28;20186;-70
2022/04/11 00:11:39;;;;;;;8.67;5.50;;;3.40;99.90;;;;;;5015341;28;20206;-70
2022/04/11 00:14:04;;;;;;;7.27;4.97;;;3.40;99.90;;;;;;5029257;28;20181;-70
2022/04/11 00:16:31;;;;;;;6.27;4.90;;;3.40;99.90;;;;;;5031783;28;20284;-71
2022/04/11 00:18:56;;;;;;;7.80;5.90;;;3.40;99.90;;;;;;5029172;28;20574;-70
2022/04/11 00:21:22;;;;;;;8.90;5.23;;;3.50;99.90;;;;;;5028857;28;20451;-70
2022/04/11 00:23:48;;;;;;;7.77;5.30;;;3.40;99.90;;;;;;5028789;28;20291;-70
2022/04/11 00:26:14;;;;;;;6.00;5.33;;;3.50;99.90;;;;;;5026353;28;20441;-70
2022/04/11 00:28:40;;;;;;;8.47;5.47;;;3.50;99.90;;;;;;5028409;28;20269;-70
2022/04/11 00:31:05;;;;;;;5.60;5.03;;;3.40;99.90;;;;;;5031226;28;20209;-70
2022/04/11 00:33:31;;;;;;;7.90;5.27;;;3.70;99.90;;;;;;5029152;28;20488;-70
2022/04/11 00:35:56;;;;;;;9.03;5.60;;;3.80;99.90;;;;;;5010560;28;20205;-70
2022/04/11 00:38:22;;;;;;;5.67;4.83;;;3.30;99.90;;;;;;5028837;28;20177;-70
2022/04/11 00:40:47;;;;;;;7.80;5.53;;;3.20;99.90;;;;;;5026938;28;20266;-70
2022/04/11 00:43:29;;;;;;;10.00;5.40;;;3.20;99.90;;;;;;5028016;28;20260;-70
2022/04/11 00:45:55;;;;;;;10.80;5.37;;;3.30;99.90;;;;;;5028124;28;20280;-70
2022/04/11 00:48:20;;;;;;;9.97;5.70;;;3.60;99.90;;;;;;5028213;28;20571;-70
2022/04/11 00:50:46;;;;;;;10.13;5.50;;;3.50;99.90;;;;;;5027897;28;20213;-70
2022/04/11 00:53:12;;;;;;;9.33;5.23;;;3.30;99.90;;;;;;5029194;28;20260;-70
2022/04/11 00:55:37;;;;;;;11.03;5.37;;;3.30;99.90;;;;;;5027657;28;20197;-70
2022/04/11 00:58:05;;;;;;;7.73;4.80;;;3.40;99.90;;;;;;5032411;28;20433;-71
2022/04/11 01:00:30;;;;;;;8.00;5.57;;;3.40;99.90;;;;;;5032833;28;20203;-70
2022/04/11 01:02:56;;;;;;;8.03;5.30;;;3.90;99.90;;;;;;5027143;28;20981;-70
2022/04/11 01:05:21;;;;;;;8.87;6.27;;;3.40;99.90;;;;;;5025700;28;20209;-70
2022/04/11 01:07:48;;;;;;;6.07;4.97;;;3.50;99.90;;;;;;5027797;28;20188;-70
2022/04/11 01:10:14;;;;;;;11.77;5.47;;;3.40;99.90;;;;;;5025426;28;20202;-70
2022/04/11 01:12:41;;;;;;;8.37;5.33;;;3.40;99.90;;;;;;5008438;28;20433;-70
2022/04/11 01:15:07;;;;;;;12.23;5.70;;;3.90;99.90;;;;;;5027060;28;21024;-70
2022/04/11 01:17:34;;;;;;;9.60;5.90;;;3.50;99.90;;;;;;5028179;28;20424;-70
2022/04/11 01:20:06;;;;;;;7.00;5.37;;;3.60;99.90;;;;;;5027619;28;20874;-70
2022/04/11 01:22:31;;;;;;;10.50;5.50;;;3.60;99.90;;;;;;5027803;28;20499;-70
2022/04/11 01:24:57;;;;;;;8.70;5.60;;;3.80;99.90;;;;;;5027963;28;20539;-70
2022/04/11 01:27:24;;;;;;;6.30;5.70;;;4.20;99.90;;;;;;5026485;28;20574;-70
2022/04/11 01:29:50;;;;;;;7.57;6.00;;;4.30;99.90;;;;;;5037354;28;20261;-70
2022/04/11 01:32:15;;;;;;;7.87;5.70;;;4.00;99.90;;;;;;5027487;28;20503;-70
2022/04/11 01:34:41;;;;;;;7.07;5.77;;;4.10;99.90;;;;;;5026934;28;20287;-70
2022/04/11 01:37:06;;;;;;;9.40;5.60;;;4.20;99.90;;;;;;5028117;28;20177;-70
2022/04/11 01:39:32;;;;;;;12.23;6.10;;;4.30;99.90;;;;;;5027308;28;20186;-70
2022/04/11 01:41:57;;;;;;;14.20;5.43;;;4.80;99.90;;;;;;5025780;28;20297;-70
2022/04/11 01:44:23;;;;;;;10.40;6.40;;;4.40;99.90;;;;;;5026138;28;20240;-70
2022/04/11 01:46:50;;;;;;;12.60;6.23;;;4.50;99.90;;;;;;5027876;28;20271;-70
2022/04/11 01:49:16;;;;;;;8.83;5.90;;;4.60;99.90;;;;;;5027489;28;20181;-70
2022/04/11 01:51:41;;;;;;;8.80;5.43;;;4.70;99.90;;;;;;5026867;28;20452;-70
2022/04/11 01:54:07;;;;;;;8.00;5.80;;;5.00;99.90;;;;;;5027290;28;20290;-70
2022/04/11 01:56:32;;;;;;;12.30;6.17;;;4.90;99.90;;;;;;5027461;28;20193;-71
2022/04/11 01:58:58;;;;;;;9.50;6.10;;;5.10;99.90;;;;;;5031548;28;20252;-71
2022/04/11 02:01:23;;;;;;;9.57;5.70;;;5.10;99.90;;;;;;5031673;28;20178;-70
2022/04/11 02:03:49;;;;;;;8.87;5.47;;;5.20;99.90;;;;;;5026855;28;20217;-70
2022/04/11 02:06:14;;;;;;;8.40;5.67;;;5.20;99.90;;;;;;5027277;28;20204;-71
2022/04/11 02:08:40;;;;;;;8.90;5.73;;;5.30;99.90;;;;;;5027015;28;20189;-70
2022/04/11 02:11:06;;;;;;;6.27;5.17;;;5.30;99.90;;;;;;5026809;28;20540;-69
2022/04/11 02:13:32;;;;;;;7.57;5.07;;;5.40;99.90;;;;;;5027226;28;20432;-70
2022/04/11 02:15:59;;;;;;;7.77;5.37;;;5.40;99.90;;;;;;5026891;28;20178;-70
2022/04/11 02:18:24;;;;;;;7.60;5.10;;;5.50;99.90;;;;;;5026890;28;20957;-70
2022/04/11 02:20:50;;;;;;;9.33;5.30;;;5.50;99.90;;;;;;5026620;28;20472;-70
2022/04/11 02:23:15;;;;;;;6.03;4.70;;;6.10;99.90;;;;;;5026536;28;20189;-71
2022/04/11 02:25:41;;;;;;;6.30;4.67;;;5.60;99.90;;;;;;5026609;28;20205;-70
2022/04/11 02:28:06;;;;;;;6.60;5.13;;;5.60;99.90;;;;;;5031639;28;20600;-70
2022/04/11 02:30:32;;;;;;;8.90;5.00;;;5.70;99.90;;;;;;5034048;28;20197;-70
2022/04/11 02:32:58;;;;;;;8.17;5.33;;;5.70;99.90;;;;;;5026710;28;20612;-70
2022/04/11 02:35:24;;;;;;;6.33;5.20;;;5.90;99.90;;;;;;5026079;28;20217;-70
2022/04/11 02:37:49;;;;;;;5.50;4.23;;;5.70;99.90;;;;;;5026961;28;20543;-70
2022/04/11 02:40:16;;;;;;;8.33;5.17;;;5.80;99.90;;;;;;5026032;28;20486;-70
2022/04/11 02:42:43;;;;;;;7.97;4.67;;;5.80;99.90;;;;;;5024289;28;20635;-70
2022/04/11 02:45:13;;;;;;;4.60;4.20;;;6.10;99.90;;;;;;5024780;28;20493;-70
2022/04/11 02:47:39;;;;;;;7.30;4.37;;;5.80;99.90;;;;;;5029001;28;20417;-71
2022/04/11 02:50:06;;;;;;;6.93;4.50;;;6.20;99.90;;;;;;5030223;28;20478;-71
2022/04/11 02:52:32;;;;;;;6.47;4.60;;;5.90;99.90;;;;;;5030973;28;20186;-70
2022/04/11 02:54:58;;;;;;;6.50;4.07;;;5.90;99.90;;;;;;5029853;28;20996;-71
2022/04/11 02:57:24;;;;;;;7.30;4.13;;;5.90;99.90;;;;;;5029602;28;20416;-70
2022/04/11 02:59:50;;;;;;;8.80;5.30;;;6.00;99.90;;;;;;5045929;28;20381;-70
2022/04/11 03:02:16;;;;;;;6.33;4.47;;;6.20;99.90;;;;;;5030421;28;20492;-71
2022/04/11 03:04:42;;;;;;;5.17;4.13;;;6.00;99.90;;;;;;5011702;28;20511;-70
2022/04/11 03:07:07;;;;;;;9.63;4.47;;;6.00;99.90;;;;;;5030806;28;20257;-70
2022/04/11 03:09:33;;;;;;;6.40;3.93;;;6.30;99.90;;;;;;5030837;28;20185;-70
2022/04/11 03:11:58;;;;;;;10.23;4.40;;;6.40;99.90;;;;;;5029652;28;20206;-73
2022/04/11 03:14:24;;;;;;;5.97;4.30;;;6.60;99.90;;;;;;5029485;28;20961;-69
2022/04/11 03:16:50;;;;;;;6.33;4.07;;;6.00;99.90;;;;;;5012746;28;20192;-69
2022/04/11 03:19:15;;;;;;;6.40;4.37;;;6.00;99.90;;;;;;5029985;28;20216;-69
2022/04/11 03:21:41;;;;;;;5.80;3.77;;;6.40;99.90;;;;;;5030242;28;20689;-70
2022/04/11 03:24:07;;;;;;;6.83;4.30;;;6.20;99.90;;;;;;5029904;28;20258;-69
2022/04/11 03:26:32;;;;;;;6.57;4.10;;;6.10;99.90;;;;;;5029871;28;20205;-69
2022/04/11 03:28:58;;;;;;;5.73;4.20;;;6.10;99.90;;;;;;5029409;28;20177;-70
2022/04/11 03:31:23;;;;;;;5.67;3.70;;;6.40;99.90;;;;;;5044265;28;20644;-70
2022/04/11 03:33:49;;;;;;;5.43;3.80;;;6.10;99.90;;;;;;5044483;28;20181;-69
2022/04/11 03:36:14;;;;;;;5.87;4.20;;;6.20;99.90;;;;;;5029650;28;20283;-70
2022/04/11 03:38:39;;;;;;;6.00;4.27;;;6.10;99.90;;;;;;5030099;28;20636;-70
2022/04/11 03:41:05;;;;;;;9.10;4.37;;;6.50;99.90;;;;;;5028864;28;20190;-70
2022/04/11 03:43:30;;;;;;;4.57;3.80;;;6.50;99.90;;;;;;5029467;28;20186;-70
2022/04/11 03:45:56;;;;;;;6.17;3.73;;;6.50;99.90;;;;;;5025448;28;20240;-70
2022/04/11 03:48:21;;;;;;;6.03;3.77;;;6.10;99.90;;;;;;5029560;28;20684;-70
2022/04/11 03:50:47;;;;;;;6.10;3.40;;;6.30;99.90;;;;;;5029202;28;20656;-70
2022/04/11 03:53:13;;;;;;;6.20;3.53;;;6.10;99.90;;;;;;5029885;28;20193;-70
2022/04/11 03:55:38;;;;;;;4.20;3.03;;;6.70;99.90;;;;;;5028511;28;20190;-70
2022/04/11 03:58:04;;;;;;;5.07;3.03;;;6.30;99.90;;;;;;5033516;28;20182;-70
2022/04/11 04:00:30;;;;;;;5.60;3.20;;;6.20;99.90;;;;;;5040835;28;20622;-70
2022/04/11 04:03:07;;;;;;;6.10;3.50;;;6.40;99.90;;;;;;5048890;28;20252;-70
2022/04/11 04:05:41;;;;;;;8.40;3.20;;;6.00;99.90;;;;;;5027896;28;20214;-71
2022/04/11 04:08:09;;;;;;;4.90;3.40;;;6.10;99.90;;;;;;5027574;28;20519;-70
2022/04/11 04:10:34;;;;;;;5.50;3.80;;;6.30;99.90;;;;;;5028509;28;20887;-70
2022/04/11 04:13:00;;;;;;;3.77;3.20;;;6.00;99.90;;;;;;5029451;28;20459;-70
2022/04/11 04:15:26;;;;;;;8.80;4.03;;;6.40;99.90;;;;;;5017289;28;20233;-70
2022/04/11 04:17:52;;;;;;;7.27;3.60;;;6.40;99.90;;;;;;5009621;28;20662;-70
2022/04/11 04:20:18;;;;;;;7.43;3.93;;;6.00;99.90;;;;;;5019953;28;20293;-70
2022/04/11 04:22:43;;;;;;;4.33;3.70;;;5.90;99.90;;;;;;5029562;28;20959;-70
2022/04/11 04:25:09;;;;;;;5.00;3.30;;;5.90;99.90;;;;;;5029158;28;20288;-69
2022/04/11 04:27:35;;;;;;;4.03;3.30;;;6.30;99.90;;;;;;5029048;28;20192;-70
2022/04/11 04:30:00;;;;;;;5.90;3.67;;;5.80;99.90;;;;;;5040036;28;20173;-70
2022/04/11 04:32:27;;;;;;;6.03;3.60;;;5.70;99.90;;;;;;5026292;28;20188;-70
2022/04/11 04:34:53;;;;;;;4.80;3.27;;;5.70;99.90;;;;;;5028575;28;20174;-70
2022/04/11 04:37:18;;;;;;;8.50;3.23;;;5.60;99.90;;;;;;5028947;28;20847;-69
2022/04/11 04:39:44;;;;;;;4.20;3.20;;;5.90;99.90;;;;;;5028901;28;20596;-70
2022/04/11 04:42:09;;;;;;;6.03;3.57;;;6.00;99.90;;;;;;5027301;28;20573;-70
2022/04/11 04:44:40;;;;;;;5.60;3.43;;;5.90;99.90;;;;;;5027856;28;20174;-70
2022/04/11 04:47:06;;;;;;;6.83;3.23;;;5.90;99.90;;;;;;5026929;28;20752;-70
2022/04/11 04:49:32;;;;;;;6.33;3.33;;;5.40;99.90;;;;;;5026562;28;20875;-70
2022/04/11 04:51:57;;;;;;;4.93;2.87;;;5.60;99.90;;;;;;5026775;28;20479;-69
2022/04/11 04:54:23;;;;;;;4.07;3.40;;;5.30;99.90;;;;;;5026701;28;20467;-70
2022/04/11 04:56:49;;;;;;;7.10;3.70;;;5.30;99.90;;;;;;5026101;28;20198;-70
2022/04/11 04:59:15;;;;;;;9.30;3.70;;;5.20;99.90;;;;;;5028618;28;20170;-69
2022/04/11 05:01:40;;;;;;;7.83;3.97;;;5.20;99.90;;;;;;5028620;28;20478;-70
2022/04/11 05:04:06;;;;;;;6.60;3.23;;;5.10;99.90;;;;;;5027519;28;20322;-70
2022/04/11 05:06:31;;;;;;;8.20;3.97;;;5.10;99.90;;;;;;5025140;28;20637;-69
2022/04/11 05:08:57;;;;;;;7.67;4.10;;;5.50;99.90;;;;;;5026795;28;20185;-69
2022/04/11 05:11:22;;;;;;;6.97;4.70;;;5.20;99.90;;;;;;5027571;28;20198;-69
2022/04/11 05:13:48;;;;;;;5.77;4.20;;;5.30;99.90;;;;;;5028439;28;20189;-70
2022/04/11 05:16:15;;;;;;;7.53;5.07;;;5.20;99.90;;;;;;5026824;28;20660;-69
2022/04/11 05:18:41;;;;;;;6.70;5.00;;;5.20;99.90;;;;;;5024724;28;20167;-69
2022/04/11 05:21:07;;;;;;;6.73;3.83;;;5.50;99.90;;;;;;5027183;28;20424;-69
2022/04/11 05:23:32;;;;;;;6.00;4.03;;;5.20;99.90;;;;;;5028406;28;20189;-69
2022/04/11 05:25:58;;;;;;;7.77;4.00;;;5.80;99.90;;;;;;5026366;28;20221;-69
2022/04/11 05:28:24;;;;;;;5.57;4.13;;;5.80;99.90;;;;;;5030188;28;20222;-69
2022/04/11 05:30:49;;;;;;;4.90;3.30;;;5.70;99.90;;;;;;5035037;28;20557;-69
2022/04/11 05:33:15;;;;;;;5.50;3.40;;;5.80;99.90;;;;;;5027115;28;20174;-70
2022/04/11 05:35:41;;;;;;;4.30;3.30;;;5.80;99.90;;;;;;5027441;28;20193;-70
2022/04/11 05:38:06;;;;;;;8.80;3.30;;;5.60;99.90;;;;;;5027386;28;20382;-70
2022/04/11 05:40:32;;;;;;;5.50;3.47;;;5.70;99.90;;;;;;5025947;28;20192;-70
2022/04/11 05:42:58;;;;;;;8.53;3.97;;;5.70;99.90;;;;;;5026353;28;20244;-70
2022/04/11 05:45:23;;;;;;;5.40;3.43;;;5.90;99.90;;;;;;5035379;28;20459;-69
2022/04/11 05:47:49;;;;;;;5.23;3.33;;;6.00;99.90;;;;;;5029788;28;20533;-70
2022/04/11 05:50:14;;;;;;;3.80;3.07;;;6.10;99.90;;;;;;5034246;28;20625;-69
2022/04/11 05:52:40;;;;;;;5.80;3.30;;;6.20;99.90;;;;;;5026050;28;20424;-70
2022/04/11 05:55:06;;;;;;;5.47;4.10;;;6.50;99.90;;;;;;5018810;28;20444;-69
2022/04/11 05:57:31;;;;;;;5.17;2.93;;;6.50;99.90;;;;;;5023410;28;20178;-70
2022/04/11 05:59:57;;;;;;;5.07;3.37;;;6.60;99.90;;;;;;5026222;28;20409;-70
2022/04/11 06:02:22;;;;;;;4.77;2.93;;;6.70;99.90;;;;;;5026439;28;20278;-69
2022/04/11 06:04:48;;;;;;;4.50;3.13;;;7.20;99.90;;;;;;5026224;28;20272;-70
2022/04/11 06:07:13;;;;;;;6.37;3.00;;;7.50;99.90;;;;;;5031552;28;20371;-69
2022/04/11 06:09:39;;;;;;;4.80;3.07;;;7.50;99.90;;;;;;5029613;28;20265;-69
2022/04/11 06:12:06;;;;;;;4.50;3.63;;;7.40;99.90;;;;;;5023783;28;20673;-69
2022/04/11 06:14:32;;;;;;;5.67;3.17;;;7.50;99.90;;;;;;5024907;28;20186;-70
2022/04/11 06:16:57;;;;;;;5.60;3.20;;;7.70;99.90;;;;;;5026323;28;20785;-69
2022/04/11 06:19:23;;;;;;;6.63;3.00;;;7.90;99.90;;;;;;5032192;28;20359;-70
2022/04/11 06:21:50;;;;;;;7.97;3.20;;;8.20;99.90;;;;;;5026480;28;20298;-70
2022/04/11 06:24:15;;;;;;;3.53;2.90;;;8.10;99.90;;;;;;5026108;28;20189;-69
2022/04/11 06:26:41;;;;;;;9.87;3.00;;;8.20;99.90;;;;;;5026917;28;20437;-69
2022/04/11 06:29:06;;;;;;;4.37;3.07;;;8.30;99.90;;;;;;5026576;28;20593;-69
2022/04/11 06:31:32;;;;;;;3.67;2.70;;;8.40;99.90;;;;;;5025590;28;20232;-71
2022/04/11 06:33:57;;;;;;;5.23;3.17;;;8.60;99.90;;;;;;5022358;28;20181;-71
2022/04/11 06:36:23;;;;;;;4.57;3.20;;;8.90;99.90;;;;;;5022961;28;20680;-70
2022/04/11 06:38:48;;;;;;;4.33;3.37;;;9.20;99.90;;;;;;5024483;28;20699;-73
2022/04/11 06:41:13;;;;;;;4.93;3.30;;;9.40;99.90;;;;;;5023675;28;20186;-71
2022/04/11 06:43:39;;;;;;;4.83;2.70;;;10.20;99.90;;;;;;5003090;28;20186;-70
2022/04/11 06:46:04;;;;;;;5.43;3.20;;;9.60;99.90;;;;;;5023779;28;20288;-71
2022/04/11 06:48:30;;;;;;;3.53;3.07;;;9.80;99.90;;;;;;5030344;28;20189;-71
2022/04/11 06:50:56;;;;;;;4.73;3.00;;;9.90;99.90;;;;;;5025518;28;20226;-70
2022/04/11 06:53:21;;;;;;;4.53;2.90;;;10.10;99.90;;;;;;5007232;28;20268;-71
2022/04/11 06:55:47;;;;;;;8.17;3.00;;;10.10;99.90;;;;;;5021280;28;20545;-71
2022/04/11 06:58:17;;;;;;;3.97;3.10;;;10.10;99.90;;;;;;5022972;28;20254;-70
2022/04/11 07:00:44;;;;;;;5.67;3.40;;;10.10;99.90;;;;;;5025496;28;20621;-72
2022/04/11 07:03:09;;;;;;;5.00;3.33;;;10.00;99.90;;;;;;5030808;28;20423;-71
2022/04/11 07:05:36;;;;;;;6.60;3.10;;;10.10;99.90;;;;;;5027567;28;20966;-70
2022/04/11 07:08:02;;;;;;;4.50;3.33;;;10.30;99.90;;;;;;5025630;28;20196;-70
2022/04/11 07:10:27;;;;;;;4.30;3.27;;;10.20;99.90;;;;;;5025948;28;20772;-71
2022/04/11 07:12:52;;;;;;;4.63;3.50;;;10.30;99.90;;;;;;5026095;28;20182;-71
2022/04/11 07:15:18;;;;;;;4.33;3.20;;;10.40;99.90;;;;;;5026413;28;20271;-71
2022/04/11 07:17:44;;;;;;;5.20;3.43;;;10.60;99.90;;;;;;5025752;28;20186;-71
2022/04/11 07:20:10;;;;;;;5.43;3.10;;;10.80;99.90;;;;;;5038578;28;20208;-71
2022/04/11 07:22:36;;;;;;;3.20;2.90;;;10.90;99.90;;;;;;5036561;28;20219;-70
2022/04/11 07:25:02;;;;;;;5.00;3.30;;;10.90;99.90;;;;;;5026876;28;20448;-70
2022/04/11 07:27:28;;;;;;;5.40;3.57;;;11.10;99.90;;;;;;5026831;28;20182;-70
2022/04/11 07:29:53;;;;;;;7.50;4.30;;;11.30;99.90;;;;;;5027444;28;20409;-70
2022/04/11 07:32:19;;;;;;;6.07;4.00;;;11.60;99.90;;;;;;5009108;28;20206;-70
2022/04/11 07:34:44;;;;;;;4.63;3.57;;;12.30;99.80;;;;;;5031071;28;20563;-70
2022/04/11 07:37:11;;;;;;;5.90;3.40;;;13.30;95.60;;;;;;5030934;28;20177;-70
2022/04/11 07:39:37;;;;;;;5.17;3.77;;;14.20;93.10;;;;;;5029487;28;20648;-71
2022/04/11 07:42:03;;;;;;;5.43;4.17;;;15.30;86.80;;;;;;5030087;28;20420;-71
2022/04/11 07:44:29;;;;;;;6.80;4.50;;;16.50;82.60;;;;;;5030338;28;20443;-71
2022/04/11 07:46:54;;;;;;;6.07;4.60;;;16.60;77.60;;;;;;5030727;28;20198;-71
2022/04/11 07:49:20;;;;;;;7.83;4.90;;;16.80;75.10;;;;;;5038617;28;20219;-71
2022/04/11 07:51:45;;;;;;;8.50;5.13;;;17.20;74.30;;;;;;5048567;28;20195;-71
2022/04/11 07:54:11;;;;;;;6.07;4.60;;;17.50;73.20;;;;;;5032822;28;20169;-71
2022/04/11 07:56:36;;;;;;;7.10;5.60;;;18.10;65.50;;;;;;5050055;28;20200;-71
2022/04/11 07:59:02;;;;;;;7.83;5.50;;;18.70;58.60;;;;;;5050651;28;20243;-71
2022/04/11 08:01:28;;;;;;;7.47;5.30;;;18.30;59.40;;;;;;5050005;28;20183;-71
2022/04/11 08:03:54;;;;;;;6.47;5.20;;;18.10;61.80;;;;;;5050144;28;20169;-71
2022/04/11 08:06:19;;;;;;;9.13;5.40;;;18.00;63.20;;;;;;5050316;28;20497;-71
2022/04/11 08:08:46;;;;;;;7.40;5.87;;;18.30;61.10;;;;;;5050018;28;20650;-72
2022/04/11 08:11:15;;;;;;;8.47;6.20;;;18.40;60.40;;;;;;5049939;28;20199;-71
2022/04/11 08:13:42;;;;;;;8.27;5.53;;;18.30;61.60;;;;;;5050135;28;20423;-71
2022/04/11 08:16:08;;;;;;;8.00;5.57;;;18.20;64.70;;;;;;5049983;28;20439;-71
2022/04/11 08:18:33;;;;;;;7.50;5.30;;;18.30;59.30;;;;;;5037673;28;20488;-71
2022/04/11 08:21:01;;;;;;;9.90;5.80;;;18.40;60.60;;;;;;5029212;28;20600;-71
2022/04/11 08:23:27;;;;;;;9.60;5.00;;;18.90;57.50;;;;;;5029992;28;20252;-71
2022/04/11 08:25:53;;;;;;;8.20;5.63;;;19.50;52.00;;;;;;5029565;28;20510;-71
2022/04/11 08:28:20;;;;;;;6.30;5.10;;;19.90;47.00;;;;;;5030233;28;20320;-72
2022/04/11 08:30:46;;;;;;;6.47;5.00;;;20.00;46.40;;;;;;5029845;28;20200;-72
2022/04/11 08:33:12;;;;;;;7.17;5.10;;;19.90;46.30;;;;;;5029476;28;20411;-71
2022/04/11 08:35:37;;;;;;;6.93;6.10;;;20.00;46.40;;;;;;5029989;28;20282;-71
2022/04/11 08:38:03;;;;;;;5.60;4.73;;;20.40;46.80;;;;;;5028351;28;20199;-72
2022/04/11 08:40:29;;;;;;;8.40;6.07;;;20.70;47.10;;;;;;5029361;28;20185;-71
2022/04/11 08:42:55;;;;;;;7.13;5.10;;;21.20;47.40;;;;;;5032113;28;20184;-71
2022/04/11 08:45:22;;;;;;;7.70;5.20;;;21.90;48.00;;;;;;5041117;28;20716;-72
2022/04/11 08:47:49;;;;;;;6.03;5.07;;;22.90;48.80;;;;;;5024455;28;20216;-72
2022/04/11 08:50:15;;;;;;;7.70;5.30;;;23.00;48.80;;;;;;5041406;28;20403;-71
2022/04/11 08:52:41;;;;;;;7.17;5.03;;;22.70;48.60;;;;;;5049094;28;20400;-72
2022/04/11 08:55:07;;;;;;;6.60;5.03;;;22.90;48.90;;;;;;5028582;28;20255;-72
2022/04/11 08:57:36;;;;;;;6.53;5.20;;;23.10;41.50;;;;;;5028642;28;20408;-71
2022/04/11 09:00:07;;;;;;;5.20;4.57;;;23.00;43.80;;;;;;5027507;28;21067;-72
2022/04/11 09:02:34;;;;;;;9.07;5.40;;;23.00;37.90;;;;;;5024877;28;20408;-72
2022/04/11 09:05:00;;;;;;;7.43;5.10;;;22.60;38.30;;;;;;5029424;28;20474;-71
2022/04/11 09:07:25;;;;;;;7.57;5.43;;;22.00;41.10;;;;;;5029176;28;20416;-71
2022/04/11 09:09:51;;;;;;;10.07;4.60;;;21.90;42.00;;;;;;5029514;28;20517;-72
2022/04/11 09:12:19;;;;;;;7.80;4.90;;;22.10;40.10;;;;;;5028560;28;20303;-72
2022/04/11 09:14:53;;;;;;;7.67;5.40;;;22.90;36.40;;;;;;5029310;28;20252;-71
2022/04/11 09:17:22;;;;;;;9.67;5.10;;;23.00;36.60;;;;;;5028662;28;20918;-72
2022/04/11 09:20:10;;;;;;;5.40;4.70;;;23.80;36.80;;;;;;5039268;28;20442;-72
2022/04/11 09:22:35;;;;;;;5.53;4.60;;;24.30;30.00;;;;;;5048591;28;20461;-72
2022/04/11 09:25:09;;;;;;;7.10;4.90;;;24.60;28.00;;;;;;5049147;28;20451;-72
2022/04/11 09:27:35;;;;;;;7.33;5.37;;;24.60;27.20;;;;;;5028291;28;20173;-72
2022/04/11 09:30:00;;;;;;;6.70;5.10;;;24.50;27.40;;;;;;5028555;28;20833;-72
2022/04/11 09:32:26;;;;;;;8.70;5.60;;;25.10;27.60;;;;;;5028071;28;21116;-72
2022/04/11 09:34:53;;;;;;;6.30;4.63;;;25.20;23.50;;;;;;5029190;28;20173;-72
2022/04/11 09:37:20;;;;;;;7.77;4.63;;;25.20;24.60;;;;;;5028861;28;20185;-72
2022/04/11 09:39:55;;;;;;;6.50;4.97;;;25.20;23.60;;;;;;5029203;28;20427;-72
2022/04/11 09:42:32;;;;;;;6.33;5.00;;;25.00;22.90;;;;;;5028217;28;20400;-71
2022/04/11 09:45:00;;;;;;;7.13;4.60;;;25.30;22.30;;;;;;5028362;28;20586;-72
2022/04/11 09:47:25;;;;;;;6.70;4.67;;;26.00;21.70;;;;;;5028059;28;20181;-72
2022/04/11 09:49:51;;;;;;;8.17;4.43;;;26.30;18.60;;;;;;5021329;28;20169;-72
2022/04/11 09:52:17;;;;;;;6.30;4.67;;;26.10;18.80;;;;;;5048066;28;20206;-72
2022/04/11 09:54:45;;;;;;;5.73;4.50;;;25.60;19.00;;;;;;5049005;28;20237;-71
2022/04/11 09:57:13;;;;;;;7.93;4.23;;;24.60;20.20;;;;;;5047814;28;20183;-71
2022/04/11 09:59:43;;;;;;;6.37;3.93;;;24.60;21.30;;;;;;5048190;28;20889;-72
2022/04/11 10:02:12;;;;;;;6.13;4.10;;;24.90;18.90;;;;;;5047865;28;20518;-72
2022/04/11 10:04:39;;;;;;;6.00;4.30;;;25.00;20.00;;;;;;5043662;28;20514;-72
2022/04/11 10:07:09;;;;;;;5.90;4.60;;;25.30;17.90;;;;;;5027867;28;20777;-71
2022/04/11 10:09:39;;;;;;;5.00;3.97;;;24.90;17.90;;;;;;5028754;28;20423;-72
2022/04/11 10:12:05;;;;;;;7.53;3.93;;;24.90;18.90;;;;;;5027589;28;21001;-72
2022/04/11 10:14:30;;;;;;;4.90;3.60;;;25.20;18.20;;;;;;5027971;28;20423;-72
2022/04/11 10:17:00;;;;;;;5.33;3.60;;;25.90;15.40;;;;;;5028170;28;20220;-72
2022/04/11 10:19:29;;;;;;;7.40;3.87;;;25.80;15.70;;;;;;5036298;28;20165;-72
2022/04/11 10:21:59;;;;;;;4.17;3.40;;;25.90;16.40;;;;;;5047125;28;20188;-72
2022/04/11 10:24:33;;;;;;;7.57;4.10;;;25.60;13.70;;;;;;5048141;28;20399;-71
2022/04/11 10:27:20;;;;;;;5.03;3.83;;;25.20;14.10;;;;;;5047767;28;20278;-71
2022/04/11 10:29:48;;;;;;;6.47;4.07;;;24.60;14.30;;;;;;5048411;28;20410;-72
2022/04/11 10:32:19;;;;;;;5.17;3.60;;;25.20;13.50;;;;;;5047290;28;20952;-71
2022/04/11 10:35:02;;;;;;;5.47;3.57;;;24.90;16.00;;;;;;5048000;28;20403;-72
2022/04/11 10:37:35;;;;;;;5.43;3.30;;;25.50;13.50;;;;;;5048035;28;20430;-72
2022/04/11 10:40:16;;;;;;;4.33;3.40;;;26.00;12.20;;;;;;5048718;28;20897;-72
2022/04/11 10:43:00;;;;;;;7.00;3.83;;;26.00;9.40;;;;;;5034157;28;20512;-72
2022/04/11 10:45:30;;;;;;;3.60;2.97;;;25.20;11.90;;;;;;5027505;28;20526;-72
2022/04/11 10:47:56;;;;;;;5.33;3.50;;;25.80;10.70;;;;;;5030297;28;20403;-71
2022/04/11 10:50:24;;;;;;;5.37;3.23;;;26.20;8.20;;;;;;5039710;28;20920;-71
2022/04/11 10:52:55;;;;;;;4.50;3.60;;;26.30;7.20;;;;;;5047504;28;20204;-72
2022/04/11 10:55:22;;;;;;;5.53;3.20;;;26.10;8.00;;;;;;5048080;28;20419;-71
2022/04/11 10:57:55;;;;;;;5.30;3.27;;;26.70;8.20;;;;;;5047277;28;20506;-72
2022/04/11 11:00:34;;;;;;;6.60;3.10;;;27.30;5.00;;;;;;5040349;28;20869;-71
2022/04/11 11:03:05;;;;;;;5.17;3.27;;;27.00;5.00;;;;;;5027251;28;20248;-71
2022/04/11 11:05:39;;;;;;;5.23;3.60;;;27.50;4.00;;;;;;5027946;28;20555;-72
2022/04/11 11:08:07;;;;;;;5.87;3.40;;;28.30;1.00;;;;;;5029169;28;20192;-72
2022/04/11 11:10:57;;;;;;;5.83;3.53;;;28.50;1.50;;;;;;5031238;28;20231;-72
2022/04/11 11:13:36;;;;;;;5.33;4.00;;;29.10;2.30;;;;;;5031582;28;20169;-71
2022/04/11 11:16:07;;;;;;;5.73;4.03;;;29.20;1.00;;;;;;5031157;28;20267;-71
2022/04/11 11:18:48;;;;;;;5.82;3.75;;;29.60;1.00;;;;;;5033636;28;20542;-72
2022/04/11 11:21:22;;;;;;;5.50;3.30;;;29.60;1.00;;;;;;5024563;28;20180;-71
2022/04/11 11:24:10;;;;;;;6.57;3.63;;;28.80;1.00;;;;;;5031552;28;20200;-71
2022/04/11 11:26:48;;;;;;;6.30;3.70;;;28.20;1.00;;;;;;5031619;28;20201;-72
2022/04/11 11:29:24;;;;;;;8.27;3.70;;;27.20;1.00;;;;;;5031193;28;20177;-71
2022/04/11 11:31:58;;;;;;;5.57;3.70;;;27.20;1.60;;;;;;5031097;28;20308;-72
2022/04/11 11:34:29;;;;;;;6.30;4.60;;;28.10;3.10;;;;;;5031016;28;20628;-71
2022/04/11 11:37:02;;;;;;;5.67;3.70;;;28.30;1.10;;;;;;5031124;28;20189;-71
2022/04/11 11:39:30;;;;;;;7.50;4.20;;;28.40;1.50;;;;;;5031090;28;20204;-71
2022/04/11 11:42:04;;;;;;;4.07;3.50;;;28.80;1.00;;;;;;5030515;28;20168;-71
2022/04/11 11:44:30;;;;;;;6.00;3.50;;;29.60;1.00;;;;;;5030827;28;20169;-72
2022/04/11 11:47:02;;;;;;;8.60;4.67;;;29.60;1.00;;;;;;5030834;28;20240;-72
2022/04/11 11:49:36;;;;;;;8.85;4.38;;;29.80;1.00;;;;;;5038833;28;20188;-72
2022/04/11 11:52:02;;;;;;;5.30;3.80;;;29.80;1.00;;;;;;5010749;28;20214;-71
2022/04/11 11:54:34;;;;;;;4.20;3.45;;;30.90;1.00;;;;;;5011018;28;20264;-72
2022/04/11 11:57:01;;;;;;;7.00;4.28;;;33.70;1.00;;;;;;5021953;28;20208;-72
2022/04/11 11:59:26;;;;;;;5.60;3.50;;;31.30;1.00;;;;;;5030762;28;20221;-72
2022/04/11 12:04:37;;;;;;;5.72;3.78;;;30.10;1.00;;;;;;5031062;28;20173;-72
2022/04/11 12:07:03;;;;;;;4.93;3.22;;;30.00;1.00;;;;;;5030464;28;20236;-71
2022/04/11 12:09:41;;;;;;;5.65;3.80;;;30.50;1.00;;;;;;5030819;28;20169;-72
2022/04/11 12:12:08;;;;;;;5.50;3.70;;;31.10;1.00;;;;;;5029597;28;20193;-71
2022/04/11 12:15:00;;;;;;;4.82;3.20;;;31.70;1.00;;;;;;5012168;28;20621;-72
2022/04/11 12:17:30;;;;;;;5.43;3.50;;;32.80;1.00;;;;;;5029920;28;20262;-72
2022/04/11 12:20:15;;;;;;;3.72;2.88;;;33.30;1.00;;;;;;5040973;28;20165;-72
2022/04/11 12:22:58;;;;;;;4.22;3.40;;;33.90;1.00;;;;;;5049785;28;20177;-72
2022/04/11 12:25:29;;;;;;;5.55;3.13;;;32.40;1.00;;;;;;5050562;28;20197;-72
2022/04/11 12:28:19;;;;;;;5.53;3.45;;;31.90;1.00;;;;;;5027155;28;20178;-72
2022/04/11 12:30:48;;;;;;;6.15;3.40;;;31.60;1.00;;;;;;5029562;28;20273;-72
2022/04/11 12:33:37;;;;;;;4.43;3.38;;;30.30;1.00;;;;;;5029373;28;20319;-71
2022/04/11 12:36:05;;;;;;;6.88;3.45;;;30.40;1.00;;;;;;5029638;28;20209;-71
2022/04/11 12:38:41;;;;;;;4.15;3.20;;;30.90;1.00;;;;;;5030044;28;20241;-72
2022/04/11 12:41:22;;;;;;;4.90;3.20;;;31.40;1.00;;;;;;5029278;28;20304;-72
2022/04/11 12:44:15;;;;;;;5.13;3.47;;;31.10;1.00;;;;;;5030409;28;20198;-71
2022/04/11 12:46:47;;;;;;;7.90;3.90;;;30.60;1.00;;;;;;5030091;28;20555;-71
2022/04/11 12:49:18;;;;;;;4.72;3.72;;;30.30;1.00;;;;;;5031107;28;20174;-71
2022/04/11 12:52:05;;;;;;;4.35;3.20;;;30.80;1.00;;;;;;5047235;28;20574;-71
2022/04/11 12:54:42;;;;;;;4.15;3.35;;;31.40;1.00;;;;;;5049510;28;20172;-71
2022/04/11 12:57:10;;;;;;;6.80;3.30;;;31.40;1.00;;;;;;5049212;28;20169;-71
2022/04/11 12:59:42;;;;;;;4.85;3.38;;;31.10;1.00;;;;;;5049626;28;20489;-72